sensor_id;sensor_type;location;lat;lon;timestamp;P1;durP1;ratioP1;P2;durP2;ratioP2
42196;SDS011;27866;48.146;17.098;2024-01-30T00:00:54;38.95;;;17.40;;
42196;SDS011;27866;48.146;17.098;2024-01-30T00:05:07;33.83;;;16.65;;
42196;SDS011;27866;48.146;17.098;2024-01-30T00:09:19;43.85;;;15.60;;
42196;SDS011;27866;48.146;17.098;2024-01-30T00:13:30;35.13;;;16.85;;
42196;SDS011;27866;48.146;17.098;2024-01-30T00:17:42;40.30;;;17.00;;
42196;SDS011;27866;48.146;17.098;2024-01-30T00:21:53;36.25;;;15.15;;
42196;SDS011;27866;48.146;17.098;2024-01-30T00:26:05;37.85;;;16.08;;
42196;SDS011;27866;48.146;17.098;2024-01-30T00:30:16;35.38;;;16.73;;
42196;SDS011;27866;48.146;17.098;2024-01-30T00:34:28;37.03;;;16.08;;
42196;SDS011;27866;48.146;17.098;2024-01-30T00:38:39;42.03;;;16.88;;
42196;SDS011;27866;48.146;17.098;2024-01-30T00:42:51;36.90;;;16.35;;
42196;SDS011;27866;48.146;17.098;2024-01-30T00:47:04;39.03;;;17.35;;
42196;SDS011;27866;48.146;17.098;2024-01-30T00:51:16;40.38;;;16.92;;
42196;SDS011;27866;48.146;17.098;2024-01-30T00:55:27;38.45;;;16.83;;
42196;SDS011;27866;48.146;17.098;2024-01-30T00:59:39;45.63;;;17.10;;
42196;SDS011;27866;48.146;17.098;2024-01-30T01:03:50;41.25;;;17.10;;
42196;SDS011;27866;48.146;17.098;2024-01-30T01:08:02;41.30;;;18.15;;
42196;SDS011;27866;48.146;17.098;2024-01-30T01:12:13;46.35;;;19.45;;
42196;SDS011;27866;48.146;17.098;2024-01-30T01:16:26;41.70;;;19.17;;
42196;SDS011;27866;48.146;17.098;2024-01-30T01:20:37;47.40;;;18.70;;
42196;SDS011;27866;48.146;17.098;2024-01-30T01:24:49;45.17;;;18.83;;
42196;SDS011;27866;48.146;17.098;2024-01-30T01:29:00;44.03;;;19.35;;
42196;SDS011;27866;48.146;17.098;2024-01-30T01:33:12;44.95;;;18.50;;
42196;SDS011;27866;48.146;17.098;2024-01-30T01:37:24;41.70;;;17.27;;
42196;SDS011;27866;48.146;17.098;2024-01-30T01:41:37;45.47;;;19.35;;
42196;SDS011;27866;48.146;17.098;2024-01-30T01:45:48;40.80;;;18.08;;
42196;SDS011;27866;48.146;17.098;2024-01-30T01:50:00;46.80;;;19.63;;
42196;SDS011;27866;48.146;17.098;2024-01-30T01:54:11;41.88;;;18.75;;
42196;SDS011;27866;48.146;17.098;2024-01-30T01:58:24;48.55;;;19.92;;
42196;SDS011;27866;48.146;17.098;2024-01-30T02:02:39;44.70;;;18.35;;
42196;SDS011;27866;48.146;17.098;2024-01-30T02:06:51;43.47;;;17.83;;
42196;SDS011;27866;48.146;17.098;2024-01-30T02:11:03;42.35;;;18.60;;
42196;SDS011;27866;48.146;17.098;2024-01-30T02:15:15;53.08;;;17.75;;
42196;SDS011;27866;48.146;17.098;2024-01-30T02:19:26;41.25;;;16.80;;
42196;SDS011;27866;48.146;17.098;2024-01-30T02:23:38;44.33;;;17.83;;
42196;SDS011;27866;48.146;17.098;2024-01-30T02:27:51;42.22;;;17.77;;
42196;SDS011;27866;48.146;17.098;2024-01-30T02:32:02;45.15;;;17.55;;
42196;SDS011;27866;48.146;17.098;2024-01-30T02:36:14;39.80;;;17.80;;
42196;SDS011;27866;48.146;17.098;2024-01-30T02:40:26;43.72;;;17.35;;
42196;SDS011;27866;48.146;17.098;2024-01-30T02:44:37;41.08;;;18.05;;
42196;SDS011;27866;48.146;17.098;2024-01-30T02:48:49;40.95;;;17.42;;
42196;SDS011;27866;48.146;17.098;2024-01-30T02:53:00;41.83;;;16.98;;
42196;SDS011;27866;48.146;17.098;2024-01-30T02:57:12;40.67;;;17.58;;
42196;SDS011;27866;48.146;17.098;2024-01-30T03:01:23;40.97;;;17.73;;
42196;SDS011;27866;48.146;17.098;2024-01-30T03:05:35;38.53;;;16.33;;
42196;SDS011;27866;48.146;17.098;2024-01-30T03:09:46;36.05;;;17.00;;
42196;SDS011;27866;48.146;17.098;2024-01-30T03:13:58;42.50;;;17.17;;
42196;SDS011;27866;48.146;17.098;2024-01-30T03:18:10;39.17;;;16.20;;
42196;SDS011;27866;48.146;17.098;2024-01-30T03:22:22;39.33;;;16.73;;
42196;SDS011;27866;48.146;17.098;2024-01-30T03:26:34;40.15;;;18.10;;
42196;SDS011;27866;48.146;17.098;2024-01-30T03:30:45;41.88;;;16.92;;
42196;SDS011;27866;48.146;17.098;2024-01-30T03:34:57;38.90;;;16.67;;
42196;SDS011;27866;48.146;17.098;2024-01-30T03:39:08;38.13;;;17.05;;
42196;SDS011;27866;48.146;17.098;2024-01-30T03:43:20;40.85;;;17.10;;
42196;SDS011;27866;48.146;17.098;2024-01-30T03:47:31;35.30;;;17.33;;
42196;SDS011;27866;48.146;17.098;2024-01-30T03:51:43;41.10;;;17.33;;
42196;SDS011;27866;48.146;17.098;2024-01-30T03:55:54;42.72;;;16.77;;
42196;SDS011;27866;48.146;17.098;2024-01-30T04:00:06;37.95;;;16.65;;
42196;SDS011;27866;48.146;17.098;2024-01-30T04:04:27;49.60;;;18.90;;
42196;SDS011;27866;48.146;17.098;2024-01-30T04:08:39;47.38;;;18.90;;
42196;SDS011;27866;48.146;17.098;2024-01-30T04:12:50;40.40;;;17.65;;
42196;SDS011;27866;48.146;17.098;2024-01-30T04:17:02;42.67;;;17.90;;
42196;SDS011;27866;48.146;17.098;2024-01-30T04:21:14;41.90;;;18.30;;
42196;SDS011;27866;48.146;17.098;2024-01-30T04:25:25;54.25;;;18.23;;
42196;SDS011;27866;48.146;17.098;2024-01-30T04:29:37;43.25;;;17.60;;
42196;SDS011;27866;48.146;17.098;2024-01-30T04:33:48;38.75;;;17.50;;
42196;SDS011;27866;48.146;17.098;2024-01-30T04:38:00;37.00;;;17.45;;
42196;SDS011;27866;48.146;17.098;2024-01-30T04:42:11;39.47;;;17.08;;
42196;SDS011;27866;48.146;17.098;2024-01-30T04:46:23;39.70;;;17.33;;
42196;SDS011;27866;48.146;17.098;2024-01-30T04:50:34;34.78;;;15.75;;
42196;SDS011;27866;48.146;17.098;2024-01-30T04:54:46;38.67;;;16.15;;
42196;SDS011;27866;48.146;17.098;2024-01-30T04:58:59;38.05;;;16.02;;
42196;SDS011;27866;48.146;17.098;2024-01-30T05:03:10;30.95;;;15.63;;
42196;SDS011;27866;48.146;17.098;2024-01-30T05:07:22;36.60;;;15.38;;
42196;SDS011;27866;48.146;17.098;2024-01-30T05:11:38;34.00;;;15.00;;
42196;SDS011;27866;48.146;17.098;2024-01-30T05:15:50;36.88;;;15.82;;
42196;SDS011;27866;48.146;17.098;2024-01-30T05:20:02;31.70;;;14.48;;
42196;SDS011;27866;48.146;17.098;2024-01-30T05:24:15;37.70;;;15.82;;
42196;SDS011;27866;48.146;17.098;2024-01-30T05:28:27;35.85;;;15.82;;
42196;SDS011;27866;48.146;17.098;2024-01-30T05:32:40;35.78;;;16.00;;
42196;SDS011;27866;48.146;17.098;2024-01-30T05:36:51;34.42;;;15.70;;
42196;SDS011;27866;48.146;17.098;2024-01-30T05:41:03;39.15;;;17.08;;
42196;SDS011;27866;48.146;17.098;2024-01-30T05:45:14;40.85;;;18.50;;
42196;SDS011;27866;48.146;17.098;2024-01-30T05:49:26;46.90;;;20.00;;
42196;SDS011;27866;48.146;17.098;2024-01-30T05:53:37;44.40;;;20.63;;
42196;SDS011;27866;48.146;17.098;2024-01-30T05:57:49;45.28;;;20.13;;
42196;SDS011;27866;48.146;17.098;2024-01-30T06:02:04;41.67;;;18.08;;
42196;SDS011;27866;48.146;17.098;2024-01-30T06:06:15;50.28;;;19.13;;
42196;SDS011;27866;48.146;17.098;2024-01-30T06:10:27;41.47;;;18.92;;
42196;SDS011;27866;48.146;17.098;2024-01-30T06:14:38;38.17;;;17.77;;
42196;SDS011;27866;48.146;17.098;2024-01-30T06:18:50;41.75;;;17.88;;
42196;SDS011;27866;48.146;17.098;2024-01-30T06:23:02;47.38;;;17.15;;
42196;SDS011;27866;48.146;17.098;2024-01-30T06:27:13;40.35;;;17.75;;
42196;SDS011;27866;48.146;17.098;2024-01-30T06:31:26;37.08;;;17.80;;
42196;SDS011;27866;48.146;17.098;2024-01-30T06:35:37;39.67;;;17.10;;
42196;SDS011;27866;48.146;17.098;2024-01-30T06:39:50;37.92;;;16.77;;
42196;SDS011;27866;48.146;17.098;2024-01-30T06:44:02;35.60;;;15.63;;
42196;SDS011;27866;48.146;17.098;2024-01-30T06:48:16;36.15;;;16.30;;
42196;SDS011;27866;48.146;17.098;2024-01-30T06:52:28;35.22;;;15.38;;
42196;SDS011;27866;48.146;17.098;2024-01-30T06:56:39;40.00;;;17.02;;
42196;SDS011;27866;48.146;17.098;2024-01-30T07:00:51;34.72;;;15.80;;
42196;SDS011;27866;48.146;17.098;2024-01-30T07:05:03;40.83;;;16.90;;
42196;SDS011;27866;48.146;17.098;2024-01-30T07:09:15;33.22;;;14.90;;
42196;SDS011;27866;48.146;17.098;2024-01-30T07:13:27;33.78;;;16.80;;
42196;SDS011;27866;48.146;17.098;2024-01-30T07:17:39;32.47;;;16.15;;
42196;SDS011;27866;48.146;17.098;2024-01-30T07:21:50;33.45;;;15.43;;
42196;SDS011;27866;48.146;17.098;2024-01-30T07:26:02;33.22;;;15.63;;
42196;SDS011;27866;48.146;17.098;2024-01-30T07:30:13;42.53;;;15.50;;
42196;SDS011;27866;48.146;17.098;2024-01-30T07:34:25;37.13;;;16.10;;
42196;SDS011;27866;48.146;17.098;2024-01-30T07:38:38;35.25;;;15.95;;
42196;SDS011;27866;48.146;17.098;2024-01-30T07:42:49;30.98;;;15.68;;
42196;SDS011;27866;48.146;17.098;2024-01-30T07:47:02;33.75;;;15.57;;
42196;SDS011;27866;48.146;17.098;2024-01-30T07:51:13;36.78;;;15.35;;
42196;SDS011;27866;48.146;17.098;2024-01-30T07:55:25;33.45;;;15.45;;
42196;SDS011;27866;48.146;17.098;2024-01-30T07:59:44;27.52;;;14.07;;
42196;SDS011;27866;48.146;17.098;2024-01-30T08:03:56;38.25;;;15.98;;
42196;SDS011;27866;48.146;17.098;2024-01-30T08:08:07;34.80;;;15.68;;
42196;SDS011;27866;48.146;17.098;2024-01-30T08:12:19;39.25;;;16.30;;
42196;SDS011;27866;48.146;17.098;2024-01-30T08:16:31;31.77;;;15.07;;
42196;SDS011;27866;48.146;17.098;2024-01-30T08:20:42;31.33;;;14.90;;
42196;SDS011;27866;48.146;17.098;2024-01-30T08:24:54;32.67;;;15.27;;
42196;SDS011;27866;48.146;17.098;2024-01-30T08:29:05;36.95;;;16.25;;
42196;SDS011;27866;48.146;17.098;2024-01-30T08:33:17;30.65;;;14.38;;
42196;SDS011;27866;48.146;17.098;2024-01-30T08:37:29;25.40;;;13.27;;
42196;SDS011;27866;48.146;17.098;2024-01-30T08:41:40;25.73;;;12.20;;
42196;SDS011;27866;48.146;17.098;2024-01-30T08:45:52;25.77;;;13.43;;
42196;SDS011;27866;48.146;17.098;2024-01-30T08:50:03;25.02;;;13.43;;
42196;SDS011;27866;48.146;17.098;2024-01-30T08:54:15;22.83;;;12.18;;
42196;SDS011;27866;48.146;17.098;2024-01-30T08:58:27;25.42;;;13.68;;
42196;SDS011;27866;48.146;17.098;2024-01-30T09:02:39;24.52;;;13.23;;
42196;SDS011;27866;48.146;17.098;2024-01-30T09:06:51;21.40;;;11.90;;
42196;SDS011;27866;48.146;17.098;2024-01-30T09:11:12;20.70;;;11.85;;
42196;SDS011;27866;48.146;17.098;2024-01-30T09:15:25;23.15;;;12.55;;
42196;SDS011;27866;48.146;17.098;2024-01-30T09:19:36;24.23;;;12.75;;
42196;SDS011;27866;48.146;17.098;2024-01-30T09:23:48;20.77;;;12.68;;
42196;SDS011;27866;48.146;17.098;2024-01-30T09:28:00;21.27;;;12.70;;
42196;SDS011;27866;48.146;17.098;2024-01-30T09:32:11;92.35;;;17.40;;
42196;SDS011;27866;48.146;17.098;2024-01-30T09:36:23;36.10;;;15.23;;
42196;SDS011;27866;48.146;17.098;2024-01-30T09:40:35;25.33;;;13.50;;
42196;SDS011;27866;48.146;17.098;2024-01-30T09:44:46;25.23;;;12.70;;
42196;SDS011;27866;48.146;17.098;2024-01-30T09:49:01;25.98;;;12.93;;
42196;SDS011;27866;48.146;17.098;2024-01-30T09:53:13;37.33;;;14.70;;
42196;SDS011;27866;48.146;17.098;2024-01-30T09:57:25;30.63;;;13.52;;
42196;SDS011;27866;48.146;17.098;2024-01-30T10:01:37;63.25;;;14.68;;
42196;SDS011;27866;48.146;17.098;2024-01-30T10:05:50;28.63;;;13.57;;
42196;SDS011;27866;48.146;17.098;2024-01-30T10:10:05;25.80;;;13.82;;
42196;SDS011;27866;48.146;17.098;2024-01-30T10:14:17;27.67;;;13.73;;
42196;SDS011;27866;48.146;17.098;2024-01-30T10:18:32;34.83;;;14.10;;
42196;SDS011;27866;48.146;17.098;2024-01-30T10:22:44;23.23;;;12.77;;
42196;SDS011;27866;48.146;17.098;2024-01-30T10:26:59;22.60;;;12.35;;
42196;SDS011;27866;48.146;17.098;2024-01-30T10:31:15;23.52;;;11.45;;
42196;SDS011;27866;48.146;17.098;2024-01-30T10:35:28;24.85;;;10.68;;
42196;SDS011;27866;48.146;17.098;2024-01-30T10:39:39;18.88;;;8.95;;
42196;SDS011;27866;48.146;17.098;2024-01-30T10:44:13;21.60;;;10.48;;
42196;SDS011;27866;48.146;17.098;2024-01-30T10:48:29;23.55;;;10.20;;
42196;SDS011;27866;48.146;17.098;2024-01-30T10:52:43;16.85;;;9.60;;
42196;SDS011;27866;48.146;17.098;2024-01-30T10:56:55;21.50;;;10.95;;
42196;SDS011;27866;48.146;17.098;2024-01-30T11:01:10;23.88;;;10.10;;
42196;SDS011;27866;48.146;17.098;2024-01-30T11:05:23;19.80;;;9.82;;
42196;SDS011;27866;48.146;17.098;2024-01-30T11:09:39;19.63;;;9.45;;
42196;SDS011;27866;48.146;17.098;2024-01-30T11:13:52;24.30;;;9.90;;
42196;SDS011;27866;48.146;17.098;2024-01-30T11:18:03;16.67;;;9.95;;
42196;SDS011;27866;48.146;17.098;2024-01-30T11:22:15;19.83;;;9.85;;
42196;SDS011;27866;48.146;17.098;2024-01-30T11:26:32;29.77;;;11.23;;
42196;SDS011;27866;48.146;17.098;2024-01-30T11:30:43;19.73;;;10.30;;
42196;SDS011;27866;48.146;17.098;2024-01-30T11:34:57;22.92;;;10.88;;
42196;SDS011;27866;48.146;17.098;2024-01-30T11:39:09;17.23;;;9.18;;
42196;SDS011;27866;48.146;17.098;2024-01-30T11:43:21;21.85;;;11.40;;
42196;SDS011;27866;48.146;17.098;2024-01-30T11:47:37;21.40;;;11.00;;
42196;SDS011;27866;48.146;17.098;2024-01-30T11:51:49;23.20;;;11.80;;
42196;SDS011;27866;48.146;17.098;2024-01-30T11:56:01;20.77;;;10.55;;
42196;SDS011;27866;48.146;17.098;2024-01-30T12:00:14;15.95;;;9.43;;
42196;SDS011;27866;48.146;17.098;2024-01-30T12:04:28;21.67;;;9.73;;
42196;SDS011;27866;48.146;17.098;2024-01-30T12:08:40;24.80;;;10.23;;
42196;SDS011;27866;48.146;17.098;2024-01-30T12:12:52;19.75;;;9.60;;
42196;SDS011;27866;48.146;17.098;2024-01-30T12:17:04;19.10;;;8.63;;
42196;SDS011;27866;48.146;17.098;2024-01-30T12:21:16;19.77;;;9.32;;
42196;SDS011;27866;48.146;17.098;2024-01-30T12:25:28;17.52;;;9.10;;
42196;SDS011;27866;48.146;17.098;2024-01-30T12:29:41;15.88;;;8.15;;
42196;SDS011;27866;48.146;17.098;2024-01-30T12:33:53;15.25;;;7.57;;
42196;SDS011;27866;48.146;17.098;2024-01-30T12:38:05;20.17;;;9.32;;
42196;SDS011;27866;48.146;17.098;2024-01-30T12:42:18;16.98;;;8.25;;
42196;SDS011;27866;48.146;17.098;2024-01-30T12:46:33;13.85;;;6.82;;
42196;SDS011;27866;48.146;17.098;2024-01-30T12:50:45;13.32;;;7.03;;
42196;SDS011;27866;48.146;17.098;2024-01-30T12:54:57;10.27;;;5.80;;
42196;SDS011;27866;48.146;17.098;2024-01-30T12:59:08;12.82;;;5.47;;
42196;SDS011;27866;48.146;17.098;2024-01-30T13:03:20;12.93;;;5.78;;
42196;SDS011;27866;48.146;17.098;2024-01-30T13:07:32;14.13;;;6.65;;
42196;SDS011;27866;48.146;17.098;2024-01-30T13:11:44;11.00;;;5.78;;
42196;SDS011;27866;48.146;17.098;2024-01-30T13:15:56;11.82;;;5.85;;
42196;SDS011;27866;48.146;17.098;2024-01-30T13:20:08;12.30;;;5.75;;
42196;SDS011;27866;48.146;17.098;2024-01-30T13:24:21;11.60;;;6.00;;
42196;SDS011;27866;48.146;17.098;2024-01-30T13:28:33;14.07;;;5.68;;
42196;SDS011;27866;48.146;17.098;2024-01-30T13:32:45;13.38;;;5.78;;
42196;SDS011;27866;48.146;17.098;2024-01-30T13:36:57;10.43;;;5.25;;
42196;SDS011;27866;48.146;17.098;2024-01-30T13:41:09;10.05;;;5.47;;
42196;SDS011;27866;48.146;17.098;2024-01-30T13:45:21;14.73;;;7.00;;
42196;SDS011;27866;48.146;17.098;2024-01-30T13:49:32;12.85;;;6.53;;
42196;SDS011;27866;48.146;17.098;2024-01-30T13:53:44;11.60;;;6.47;;
42196;SDS011;27866;48.146;17.098;2024-01-30T13:57:55;12.15;;;5.57;;
42196;SDS011;27866;48.146;17.098;2024-01-30T14:02:07;13.43;;;6.65;;
42196;SDS011;27866;48.146;17.098;2024-01-30T14:06:20;14.50;;;6.63;;
42196;SDS011;27866;48.146;17.098;2024-01-30T14:10:32;13.38;;;6.05;;
42196;SDS011;27866;48.146;17.098;2024-01-30T14:14:43;11.93;;;6.72;;
42196;SDS011;27866;48.146;17.098;2024-01-30T14:18:55;14.40;;;7.32;;
42196;SDS011;27866;48.146;17.098;2024-01-30T14:23:06;13.55;;;6.90;;
42196;SDS011;27866;48.146;17.098;2024-01-30T14:27:18;13.77;;;7.22;;
42196;SDS011;27866;48.146;17.098;2024-01-30T14:31:29;14.00;;;7.18;;
42196;SDS011;27866;48.146;17.098;2024-01-30T14:35:41;15.93;;;8.15;;
42196;SDS011;27866;48.146;17.098;2024-01-30T14:39:52;14.77;;;8.02;;
42196;SDS011;27866;48.146;17.098;2024-01-30T14:44:04;19.15;;;7.95;;
42196;SDS011;27866;48.146;17.098;2024-01-30T14:48:16;16.33;;;8.40;;
42196;SDS011;27866;48.146;17.098;2024-01-30T14:52:27;14.25;;;7.28;;
42196;SDS011;27866;48.146;17.098;2024-01-30T14:56:39;16.77;;;7.53;;
42196;SDS011;27866;48.146;17.098;2024-01-30T15:00:51;18.58;;;7.47;;
42196;SDS011;27866;48.146;17.098;2024-01-30T15:05:02;17.38;;;8.40;;
42196;SDS011;27866;48.146;17.098;2024-01-30T15:09:14;16.35;;;8.15;;
42196;SDS011;27866;48.146;17.098;2024-01-30T15:13:26;17.80;;;8.00;;
42196;SDS011;27866;48.146;17.098;2024-01-30T15:17:38;21.05;;;9.00;;
42196;SDS011;27866;48.146;17.098;2024-01-30T15:21:50;18.10;;;8.30;;
42196;SDS011;27866;48.146;17.098;2024-01-30T15:26:01;17.30;;;8.75;;
42196;SDS011;27866;48.146;17.098;2024-01-30T15:30:13;19.95;;;9.63;;
42196;SDS011;27866;48.146;17.098;2024-01-30T15:34:25;15.65;;;8.57;;
42196;SDS011;27866;48.146;17.098;2024-01-30T15:38:36;16.67;;;8.98;;
42196;SDS011;27866;48.146;17.098;2024-01-30T15:42:48;22.88;;;11.20;;
42196;SDS011;27866;48.146;17.098;2024-01-30T15:47:00;23.15;;;12.40;;
42196;SDS011;27866;48.146;17.098;2024-01-30T15:51:11;26.95;;;11.85;;
42196;SDS011;27866;48.146;17.098;2024-01-30T15:55:23;23.70;;;12.15;;
42196;SDS011;27866;48.146;17.098;2024-01-30T15:59:35;23.63;;;12.43;;
42196;SDS011;27866;48.146;17.098;2024-01-30T16:03:47;25.15;;;13.10;;
42196;SDS011;27866;48.146;17.098;2024-01-30T16:07:59;25.45;;;12.93;;
42196;SDS011;27866;48.146;17.098;2024-01-30T16:12:10;22.48;;;12.10;;
42196;SDS011;27866;48.146;17.098;2024-01-30T16:16:22;23.98;;;11.93;;
42196;SDS011;27866;48.146;17.098;2024-01-30T16:20:33;26.88;;;12.80;;
42196;SDS011;27866;48.146;17.098;2024-01-30T16:24:45;24.92;;;13.23;;
42196;SDS011;27866;48.146;17.098;2024-01-30T16:28:57;27.65;;;14.30;;
42196;SDS011;27866;48.146;17.098;2024-01-30T16:33:09;27.58;;;14.73;;
42196;SDS011;27866;48.146;17.098;2024-01-30T16:37:21;29.67;;;15.73;;
42196;SDS011;27866;48.146;17.098;2024-01-30T16:41:32;27.73;;;16.13;;
42196;SDS011;27866;48.146;17.098;2024-01-30T16:45:44;38.40;;;20.95;;
42196;SDS011;27866;48.146;17.098;2024-01-30T16:49:56;30.48;;;17.98;;
42196;SDS011;27866;48.146;17.098;2024-01-30T16:54:08;32.35;;;18.08;;
42196;SDS011;27866;48.146;17.098;2024-01-30T16:58:19;34.03;;;19.00;;
42196;SDS011;27866;48.146;17.098;2024-01-30T17:02:31;31.48;;;19.05;;
42196;SDS011;27866;48.146;17.098;2024-01-30T17:06:42;33.13;;;19.02;;
42196;SDS011;27866;48.146;17.098;2024-01-30T17:10:55;35.22;;;20.00;;
42196;SDS011;27866;48.146;17.098;2024-01-30T17:15:07;33.60;;;18.85;;
42196;SDS011;27866;48.146;17.098;2024-01-30T17:19:20;33.15;;;18.90;;
42196;SDS011;27866;48.146;17.098;2024-01-30T17:23:32;33.95;;;18.42;;
42196;SDS011;27866;48.146;17.098;2024-01-30T17:27:44;40.30;;;20.17;;
42196;SDS011;27866;48.146;17.098;2024-01-30T17:31:59;34.33;;;20.30;;
42196;SDS011;27866;48.146;17.098;2024-01-30T17:36:10;38.17;;;20.45;;
42196;SDS011;27866;48.146;17.098;2024-01-30T17:40:24;37.75;;;20.45;;
42196;SDS011;27866;48.146;17.098;2024-01-30T17:44:35;36.08;;;19.92;;
42196;SDS011;27866;48.146;17.098;2024-01-30T17:48:50;37.60;;;20.15;;
42196;SDS011;27866;48.146;17.098;2024-01-30T17:53:01;42.92;;;19.85;;
42196;SDS011;27866;48.146;17.098;2024-01-30T17:57:15;37.35;;;19.95;;
42196;SDS011;27866;48.146;17.098;2024-01-30T18:01:27;38.35;;;18.23;;
42196;SDS011;27866;48.146;17.098;2024-01-30T18:05:39;39.40;;;19.10;;
42196;SDS011;27866;48.146;17.098;2024-01-30T18:09:51;37.63;;;20.40;;
42196;SDS011;27866;48.146;17.098;2024-01-30T18:14:03;37.35;;;18.98;;
42196;SDS011;27866;48.146;17.098;2024-01-30T18:18:14;36.08;;;19.15;;
42196;SDS011;27866;48.146;17.098;2024-01-30T18:22:26;42.20;;;19.15;;
42196;SDS011;27866;48.146;17.098;2024-01-30T18:26:37;35.10;;;18.52;;
42196;SDS011;27866;48.146;17.098;2024-01-30T18:30:49;47.47;;;21.00;;
42196;SDS011;27866;48.146;17.098;2024-01-30T18:35:00;41.40;;;18.75;;
42196;SDS011;27866;48.146;17.098;2024-01-30T18:39:12;43.10;;;18.60;;
42196;SDS011;27866;48.146;17.098;2024-01-30T18:43:24;39.90;;;19.85;;
42196;SDS011;27866;48.146;17.098;2024-01-30T18:47:36;40.88;;;21.13;;
42196;SDS011;27866;48.146;17.098;2024-01-30T18:51:48;44.80;;;20.92;;
42196;SDS011;27866;48.146;17.098;2024-01-30T18:56:05;42.35;;;19.73;;
42196;SDS011;27866;48.146;17.098;2024-01-30T19:00:16;40.35;;;19.65;;
42196;SDS011;27866;48.146;17.098;2024-01-30T19:04:28;40.58;;;20.05;;
42196;SDS011;27866;48.146;17.098;2024-01-30T19:08:40;44.67;;;21.40;;
42196;SDS011;27866;48.146;17.098;2024-01-30T19:12:51;43.10;;;21.38;;
42196;SDS011;27866;48.146;17.098;2024-01-30T19:17:03;46.08;;;21.63;;
42196;SDS011;27866;48.146;17.098;2024-01-30T19:21:15;46.80;;;21.90;;
42196;SDS011;27866;48.146;17.098;2024-01-30T19:25:28;45.97;;;22.17;;
42196;SDS011;27866;48.146;17.098;2024-01-30T19:29:40;45.13;;;21.75;;
42196;SDS011;27866;48.146;17.098;2024-01-30T19:33:51;44.97;;;21.85;;
42196;SDS011;27866;48.146;17.098;2024-01-30T19:38:03;53.15;;;23.27;;
42196;SDS011;27866;48.146;17.098;2024-01-30T19:42:19;52.47;;;22.10;;
42196;SDS011;27866;48.146;17.098;2024-01-30T19:46:30;47.45;;;22.98;;
42196;SDS011;27866;48.146;17.098;2024-01-30T19:50:42;53.40;;;23.35;;
42196;SDS011;27866;48.146;17.098;2024-01-30T19:54:53;51.95;;;22.88;;
42196;SDS011;27866;48.146;17.098;2024-01-30T19:59:05;47.47;;;23.27;;
42196;SDS011;27866;48.146;17.098;2024-01-30T20:03:16;48.67;;;22.13;;
42196;SDS011;27866;48.146;17.098;2024-01-30T20:07:28;47.80;;;22.33;;
42196;SDS011;27866;48.146;17.098;2024-01-30T20:11:40;50.75;;;22.55;;
42196;SDS011;27866;48.146;17.098;2024-01-30T20:15:51;51.35;;;22.70;;
42196;SDS011;27866;48.146;17.098;2024-01-30T20:20:03;55.38;;;23.55;;
42196;SDS011;27866;48.146;17.098;2024-01-30T20:24:16;50.85;;;23.45;;
42196;SDS011;27866;48.146;17.098;2024-01-30T20:28:27;51.20;;;23.35;;
42196;SDS011;27866;48.146;17.098;2024-01-30T20:32:39;53.63;;;24.25;;
42196;SDS011;27866;48.146;17.098;2024-01-30T20:36:51;47.58;;;21.77;;
42196;SDS011;27866;48.146;17.098;2024-01-30T20:41:03;50.38;;;24.02;;
42196;SDS011;27866;48.146;17.098;2024-01-30T20:45:19;53.33;;;23.88;;
42196;SDS011;27866;48.146;17.098;2024-01-30T20:49:30;54.13;;;23.77;;
42196;SDS011;27866;48.146;17.098;2024-01-30T20:53:42;59.90;;;24.83;;
42196;SDS011;27866;48.146;17.098;2024-01-30T20:57:55;56.78;;;25.63;;
42196;SDS011;27866;48.146;17.098;2024-01-30T21:02:06;56.58;;;24.63;;
42196;SDS011;27866;48.146;17.098;2024-01-30T21:06:18;57.72;;;24.52;;
42196;SDS011;27866;48.146;17.098;2024-01-30T21:10:30;50.90;;;24.08;;
42196;SDS011;27866;48.146;17.098;2024-01-30T21:14:41;56.55;;;24.90;;
42196;SDS011;27866;48.146;17.098;2024-01-30T21:18:53;56.90;;;24.65;;
42196;SDS011;27866;48.146;17.098;2024-01-30T21:23:04;49.35;;;25.15;;
42196;SDS011;27866;48.146;17.098;2024-01-30T21:27:17;57.90;;;24.50;;
42196;SDS011;27866;48.146;17.098;2024-01-30T21:31:29;52.88;;;23.85;;
42196;SDS011;27866;48.146;17.098;2024-01-30T21:35:40;51.35;;;24.10;;
42196;SDS011;27866;48.146;17.098;2024-01-30T21:39:52;51.30;;;23.65;;
42196;SDS011;27866;48.146;17.098;2024-01-30T21:44:04;52.90;;;23.58;;
42196;SDS011;27866;48.146;17.098;2024-01-30T21:48:16;52.65;;;23.42;;
42196;SDS011;27866;48.146;17.098;2024-01-30T21:52:27;46.95;;;22.65;;
42196;SDS011;27866;48.146;17.098;2024-01-30T21:56:39;49.38;;;23.52;;
42196;SDS011;27866;48.146;17.098;2024-01-30T22:00:53;51.40;;;23.23;;
42196;SDS011;27866;48.146;17.098;2024-01-30T22:05:05;45.55;;;22.73;;
42196;SDS011;27866;48.146;17.098;2024-01-30T22:09:16;47.75;;;22.17;;
42196;SDS011;27866;48.146;17.098;2024-01-30T22:13:28;50.72;;;22.27;;
42196;SDS011;27866;48.146;17.098;2024-01-30T22:17:39;45.92;;;22.77;;
42196;SDS011;27866;48.146;17.098;2024-01-30T22:21:51;41.08;;;21.02;;
42196;SDS011;27866;48.146;17.098;2024-01-30T22:26:03;45.60;;;22.13;;
42196;SDS011;27866;48.146;17.098;2024-01-30T22:30:14;43.53;;;21.42;;
42196;SDS011;27866;48.146;17.098;2024-01-30T22:34:26;45.15;;;21.15;;
42196;SDS011;27866;48.146;17.098;2024-01-30T22:38:39;45.50;;;21.92;;
42196;SDS011;27866;48.146;17.098;2024-01-30T22:47:04;43.13;;;21.25;;
42196;SDS011;27866;48.146;17.098;2024-01-30T22:51:16;45.92;;;20.75;;
42196;SDS011;27866;48.146;17.098;2024-01-30T22:55:28;41.72;;;21.85;;
42196;SDS011;27866;48.146;17.098;2024-01-30T22:59:39;53.45;;;22.90;;
42196;SDS011;27866;48.146;17.098;2024-01-30T23:03:52;48.10;;;22.63;;
42196;SDS011;27866;48.146;17.098;2024-01-30T23:08:04;50.97;;;23.75;;
42196;SDS011;27866;48.146;17.098;2024-01-30T23:12:17;54.97;;;24.92;;
42196;SDS011;27866;48.146;17.098;2024-01-30T23:16:28;57.17;;;25.65;;
42196;SDS011;27866;48.146;17.098;2024-01-30T23:20:40;55.50;;;25.42;;
42196;SDS011;27866;48.146;17.098;2024-01-30T23:24:52;60.70;;;26.35;;
42196;SDS011;27866;48.146;17.098;2024-01-30T23:29:03;55.30;;;25.00;;
42196;SDS011;27866;48.146;17.098;2024-01-30T23:33:15;49.60;;;24.35;;
42196;SDS011;27866;48.146;17.098;2024-01-30T23:37:26;57.50;;;27.00;;
42196;SDS011;27866;48.146;17.098;2024-01-30T23:41:38;55.58;;;25.60;;
42196;SDS011;27866;48.146;17.098;2024-01-30T23:45:50;61.55;;;27.20;;
42196;SDS011;27866;48.146;17.098;2024-01-30T23:50:01;58.97;;;26.52;;
42196;SDS011;27866;48.146;17.098;2024-01-30T23:54:13;58.78;;;27.42;;
42196;SDS011;27866;48.146;17.098;2024-01-30T23:58:25;61.25;;;27.15;;
